Time;durP1;ratioP1;P1;durP2;ratioP2;P2;SDS_P1;SDS_P2;PMS_P1;PMS_P2;Temp;Humidity;BMP_temperature;BMP_pressure;BME280_temperature;BME280_humidity;BME280_pressure;Samples;Min_cycle;Max_cycle;Signal;HPM_P1;HPM_P2
2022/08/11 00:00:34;;;;;;;6.93;5.28;;;;;;;20.77;59.15;98752.03;5141437;27;20071;-92
2022/08/11 00:03:04;;;;;;;9.05;5.07;;;;;;;20.81;59.31;98767.91;5140422;27;20131;-93
2022/08/11 00:05:42;;;;;;;7.80;4.50;;;;;;;20.80;59.18;98765.34;5146564;27;20039;-93
2022/08/11 00:08:10;;;;;;;5.78;4.30;;;;;;;20.88;58.85;98771.94;5144738;27;20039;-93
2022/08/11 00:10:38;;;;;;;8.93;5.07;;;;;;;20.90;58.78;98769.13;5142093;27;20087;-93
2022/08/11 00:13:08;;;;;;;7.05;5.07;;;;;;;20.97;58.80;98767.75;5138386;27;20035;-92
2022/08/11 00:15:40;;;;;;;8.93;5.00;;;;;;;20.82;59.86;98766.06;5145860;27;20101;-93
2022/08/11 00:18:08;;;;;;;10.02;5.20;;;;;;;20.77;59.78;98765.53;5145546;27;20092;-93
2022/08/11 00:20:38;;;;;;;8.57;5.05;;;;;;;20.88;59.40;98773.75;5144154;27;20388;-90
2022/08/11 00:23:07;;;;;;;8.00;5.28;;;;;;;20.79;59.76;98766.31;5149607;27;20039;-91
2022/08/11 00:25:39;;;;;;;;;;;;;;;20.74;60.15;98780.13;5140378;27;20067;-94
2022/08/11 00:28:21;;;;;;;6.40;4.25;;;;;;;;;;5141567;27;19926;-93
2022/08/11 00:30:49;;;;;;;7.03;4.95;;;;;;;20.56;60.59;98755.22;5130322;27;20126;-92
2022/08/11 00:33:17;;;;;;;7.00;4.85;;;;;;;20.53;60.62;98753.56;5129735;27;20043;-92
2022/08/11 00:35:44;;;;;;;7.75;5.03;;;;;;;20.60;60.50;98770.28;5128536;27;20146;-93
2022/08/11 00:38:12;;;;;;;6.95;5.10;;;;;;;20.56;61.15;98766.03;5131577;27;20043;-92
2022/08/11 00:40:44;;;;;;;6.70;5.25;;;;;;;20.47;61.12;98762.13;5129175;27;20485;-94
2022/08/11 00:43:20;;;;;;;7.72;4.82;;;;;;;20.45;61.03;98764.06;5130076;27;20385;-91
2022/08/11 00:46:10;;;;;;;7.80;4.97;;;;;;;20.57;60.83;98778.56;5132280;27;20062;-92
2022/08/11 00:48:51;;;;;;;6.30;4.75;;;;;;;20.62;60.53;98770.16;5129387;27;20024;-95
2022/08/11 00:51:31;;;;;;;7.18;4.88;;;;;;;20.54;60.75;98759.84;5129159;27;20039;-92
2022/08/11 00:54:06;;;;;;;6.03;4.68;;;;;;;20.56;60.85;98754.31;5128088;27;20131;-91
2022/08/11 00:57:28;;;;;;;6.43;4.95;;;;;;;20.63;60.86;98770.06;5127930;27;20126;-92
2022/08/11 01:00:12;;;;;;;6.63;4.43;;;;;;;20.69;60.54;98760.69;5047581;28;20134;-91
2022/08/11 01:03:17;;;;;;;6.18;4.53;;;;;;;20.74;60.37;98765.75;5095151;28;20127;-92
2022/08/11 01:06:02;;;;;;;7.45;4.95;;;;;;;20.69;60.21;98758.84;5095033;28;20083;-93
2022/08/11 01:08:45;;;;;;;7.10;4.50;;;;;;;20.71;60.51;98759.59;5094585;28;20036;-93
2022/08/11 01:11:53;;;;;;;8.13;4.53;;;;;;;20.73;60.51;98775.69;5096691;28;20072;-93
2022/08/11 01:14:50;;;;;;;6.85;4.85;;;;;;;20.69;60.93;98772.34;5073795;28;20048;-94
2022/08/11 01:17:54;;;;;;;8.77;5.22;;;;;;;20.69;61.14;98766.94;5094094;28;20036;-94
2022/08/11 01:21:01;;;;;;;7.55;4.50;;;;;;;20.68;61.25;98759.78;5026594;28;20069;-90
2022/08/11 01:24:03;;;;;;;7.45;5.20;;;;;;;20.75;61.59;98781.00;5015595;28;20555;-92
2022/08/11 01:27:19;;;;;;;8.10;5.30;;;;;;;20.71;62.17;98765.00;5024831;28;20053;-91
2022/08/11 01:30:18;;;;;;;7.00;4.80;;;;;;;20.72;62.38;98765.88;4950282;28;20134;-93
2022/08/11 01:33:04;;;;;;;;;;;;;;;20.77;62.49;98770.94;4951722;28;20054;-94
2022/08/11 01:36:21;;;;;;;8.13;4.72;;;;;;;20.70;62.76;98774.06;5008401;28;19924;-91
2022/08/11 01:39:28;;;;;;;6.88;5.07;;;;;;;20.53;63.20;98740.06;4956704;29;20039;-94
2022/08/11 01:45:34;;;;;;;7.90;4.65;;;;;;;20.51;64.53;98746.53;5175716;27;20363;-94
2022/08/11 01:48:06;;;;;;;8.88;4.88;;;;;;;20.43;64.88;98744.38;5138898;27;20092;-92
2022/08/11 01:50:57;;;;;;;6.53;4.72;;;;;;;20.42;65.11;98757.97;5140653;27;20089;-92
2022/08/11 01:53:34;;;;;;;7.53;5.57;;;;;;;20.40;65.55;98755.38;5150012;27;20519;-93
2022/08/11 01:56:13;;;;;;;8.18;5.13;;;;;;;20.28;65.92;98750.81;5144362;27;20114;-90
2022/08/11 01:58:48;;;;;;;8.88;4.72;;;;;;;20.26;66.18;98747.34;5149046;27;20496;-96
2022/08/11 02:01:36;;;;;;;7.90;5.20;;;;;;;20.31;66.88;98747.91;5144941;27;20043;-94
2022/08/11 02:04:16;;;;;;;7.57;4.63;;;;;;;20.37;66.23;98743.94;5145231;27;20492;-95
2022/08/11 02:06:57;;;;;;;7.68;4.80;;;;;;;20.28;66.67;98729.22;5141541;27;20114;-95
2022/08/11 02:09:42;;;;;;;9.40;5.20;;;;;;;20.23;66.74;98732.22;5145029;27;20043;-94
2022/08/11 02:12:17;;;;;;;9.20;5.65;;;;;;;20.23;66.97;98732.22;5144182;27;20050;-95
2022/08/11 02:15:07;;;;;;;7.75;4.85;;;;;;;20.39;66.79;98745.56;5140776;27;20364;-94
2022/08/11 02:17:47;;;;;;;10.45;5.20;;;;;;;20.23;67.42;98726.84;5136256;27;20099;-95
2022/08/11 02:26:35;;;;;;;7.40;4.65;;;;;;;20.31;67.13;98734.41;5132471;27;20115;-93
2022/08/11 02:29:10;;;;;;;8.25;5.00;;;;;;;20.27;67.45;98735.56;5132271;28;20067;-92
2022/08/11 02:35:00;;;;;;;8.02;5.28;;;;;;;20.26;67.56;98739.25;5145976;27;20377;-92
2022/08/11 02:37:36;;;;;;;9.38;4.90;;;;;;;20.23;67.65;98732.22;5104059;28;20051;-91
2022/08/11 02:40:14;;;;;;;7.68;5.22;;;;;;;20.30;67.57;98747.03;5111618;28;20040;-94
2022/08/11 02:42:49;;;;;;;;;;;;;;;20.38;67.89;98742.94;5111781;28;20039;-92
2022/08/11 02:45:30;;;;;;;9.05;4.85;;;;;;;20.36;67.50;98724.13;5112095;28;19946;-93
2022/08/11 02:51:13;;;;;;;8.15;4.93;;;;;;;20.36;67.98;98740.34;5148265;27;20360;-93
2022/08/11 02:53:42;;;;;;;;;;;;;;;20.39;68.34;98739.28;5117560;27;20489;-92
2022/08/11 02:56:21;;;;;;;8.27;4.57;;;;;;;20.33;68.23;98727.06;5119038;28;20377;-93
2022/08/11 03:02:33;;;;;;;7.60;5.20;;;;;;;20.40;68.60;98725.66;5091978;27;20720;-94
2022/08/11 03:05:11;;;;;;;7.93;5.03;;;;;;;20.46;68.45;98727.09;5090567;28;20065;-93
2022/08/11 03:07:48;;;;;;;8.45;4.95;;;;;;;20.42;68.23;98717.47;5090490;28;20048;-92
2022/08/11 03:10:30;;;;;;;9.40;5.50;;;;;;;20.46;68.50;98717.16;5087744;28;20040;-92
2022/08/11 03:19:25;;;;;;;8.50;5.85;;;;;;;20.42;68.90;98717.47;5092273;27;20389;-90
2022/08/11 03:22:01;;;;;;;8.82;5.60;;;;;;;20.34;69.09;98726.06;5087360;28;20497;-93
2022/08/11 03:24:35;;;;;;;8.20;5.18;;;;;;;20.34;69.30;98717.97;5089670;28;20040;-92
2022/08/11 03:27:06;;;;;;;9.55;4.93;;;;;;;20.31;69.77;98724.44;5090385;28;20036;-94
2022/08/11 03:29:39;;;;;;;9.80;5.88;;;;;;;20.26;69.96;98717.66;5091701;28;20147;-94
2022/08/11 03:32:10;;;;;;;8.93;5.07;;;;;;;20.34;69.68;98731.47;5090078;28;20047;-93
2022/08/11 03:34:40;;;;;;;6.95;5.18;;;;;;;20.29;69.73;98710.19;5091883;28;20143;-92
2022/08/11 03:44:00;;;;;;;10.10;5.15;;;;;;;20.17;70.94;98734.44;5132470;27;20398;-94
2022/08/11 03:46:44;;;;;;;8.20;4.47;;;;;;;20.20;71.00;98729.72;5132347;28;20143;-94
2022/08/11 03:49:24;;;;;;;8.70;5.60;;;;;;;20.07;71.42;98723.41;5131971;28;20036;-91
2022/08/11 03:51:54;;;;;;;8.18;5.25;;;;;;;20.02;71.68;98726.44;5132749;28;20039;-92
2022/08/11 03:54:38;;;;;;;6.88;5.13;;;;;;;20.05;71.81;98731.59;5132466;28;20045;-92
2022/08/11 03:57:37;;;;;;;7.05;4.72;;;;;;;20.12;71.92;98732.06;5132970;28;20138;-93
2022/08/11 04:00:26;;;;;;;10.05;4.97;;;;;;;20.10;71.97;98736.69;5125989;28;20040;-95
2022/08/11 04:03:27;;;;;;;7.22;4.82;;;;;;;20.14;72.29;98731.97;5132208;28;20035;-91
2022/08/11 04:06:22;;;;;;;7.60;4.93;;;;;;;20.08;71.81;98734.13;5129977;28;20043;-94
2022/08/11 04:09:26;;;;;;;7.97;5.22;;;;;;;20.19;71.83;98737.91;5130868;28;20601;-93
2022/08/11 04:12:24;;;;;;;9.13;5.60;;;;;;;20.10;72.39;98736.69;5131209;28;20035;-93
2022/08/11 04:18:49;;;;;;;8.75;5.15;;;;;;;20.07;72.78;98729.66;5186262;27;20362;-94
2022/08/11 04:21:49;;;;;;;8.13;4.95;;;;;;;20.15;71.97;98739.13;5088002;28;20062;-94
2022/08/11 04:24:35;;;;;;;8.55;5.20;;;;;;;20.11;71.94;98719.53;5108951;28;20114;-95
2022/08/11 04:27:26;;;;;;;8.07;4.80;;;;;;;20.04;71.92;98711.00;5108760;28;20147;-96
2022/08/11 04:30:07;;;;;;;6.78;4.82;;;;;;;20.07;72.07;98728.81;5108806;28;20130;-95
2022/08/11 04:32:58;;;;;;;7.47;5.18;;;;;;;20.00;72.31;98728.34;5104562;28;20400;-95
2022/08/11 04:35:37;;;;;;;7.85;4.93;;;;;;;20.04;72.18;98740.69;5059522;28;20047;-92
2022/08/11 04:38:33;;;;;;;8.57;5.13;;;;;;;20.00;72.59;98735.59;5107378;28;20392;-93
2022/08/11 04:45:34;;;;;;;9.35;5.03;;;;;;;20.05;72.72;98755.03;5185421;27;20389;-94
2022/08/11 05:01:43;;;;;;;8.50;5.80;;;;;;;20.07;72.46;98758.50;5145870;27;20719;-93
2022/08/11 05:08:28;;;;;;;7.72;4.85;;;;;;;20.20;70.57;98755.84;5137172;27;20895;-94
2022/08/11 05:11:12;;;;;;;6.85;4.40;;;;;;;20.30;70.44;98763.25;5126721;27;20036;-94
2022/08/11 05:35:15;;;;;;;6.72;4.18;;;;;;;21.39;64.42;98756.69;5111281;27;20746;-93
2022/08/11 05:59:27;;;;;;;6.43;4.30;;;;;;;22.46;59.57;98753.34;5113222;27;20393;-93
2022/08/11 06:01:59;;;;;;;6.50;4.15;;;;;;;22.63;58.89;98752.06;5112678;28;20044;-93
2022/08/11 06:04:27;;;;;;;8.27;4.47;;;;;;;22.69;58.55;98733.47;5113492;28;20065;-93
2022/08/11 06:06:56;;;;;;;6.25;4.05;;;;;;;22.83;58.65;98761.38;5114151;28;20097;-92
2022/08/11 06:09:25;;;;;;;6.10;4.22;;;;;;;22.51;59.82;98765.59;5112743;28;20040;-94
2022/08/11 06:11:53;;;;;;;7.78;3.95;;;;;;;22.76;58.65;98760.97;5113883;28;20089;-94
2022/08/11 06:14:21;;;;;;;6.78;4.10;;;;;;;22.61;57.77;98730.50;5114904;28;20048;-95
2022/08/11 06:16:52;;;;;;;;;;;;;;;22.96;57.38;98757.56;5114176;28;20043;-94
2022/08/11 06:19:22;;;;;;;8.35;4.20;;;;;;;23.02;57.25;98752.69;5113215;28;20296;-93
2022/08/11 06:21:51;;;;;;;6.15;4.05;;;;;;;23.14;57.35;98755.31;5112436;28;20566;-95
2022/08/11 06:24:18;;;;;;;4.65;3.80;;;;;;;23.03;57.21;98741.75;5113021;28;20055;-94
2022/08/11 06:26:50;;;;;;;6.00;3.65;;;;;;;23.18;55.93;98742.34;5115666;28;20074;-96
2022/08/11 06:29:17;;;;;;;8.88;4.18;;;;;;;23.34;55.58;98742.00;5107860;28;20044;-93
2022/08/11 06:31:52;;;;;;;7.40;4.05;;;;;;;23.32;55.70;98749.41;5114162;28;20050;-94
2022/08/11 06:34:32;;;;;;;8.82;4.22;;;;;;;23.46;54.61;98738.28;5113224;28;20040;-95
2022/08/11 06:37:17;;;;;;;6.03;3.85;;;;;;;23.58;54.57;98744.59;5113205;28;20036;-95
2022/08/11 06:39:49;;;;;;;6.75;3.70;;;;;;;23.71;53.22;98739.03;5115479;28;20570;-95
2022/08/11 06:42:33;;;;;;;5.57;3.83;;;;;;;23.77;52.16;98746.72;5114165;28;20105;-94
2022/08/11 06:45:06;;;;;;;5.95;3.80;;;;;;;23.90;52.20;98749.25;5113455;28;20042;-94
2022/08/11 06:47:34;;;;;;;5.47;3.55;;;;;;;23.97;51.64;98758.63;5112360;28;20032;-95
2022/08/11 06:53:04;;;;;;;5.95;3.60;;;;;;;24.14;51.29;98757.25;5114829;27;20358;-92
2022/08/11 07:01:57;;;;;;;6.40;3.45;;;;;;;24.49;49.54;98759.75;5173165;27;20379;-92
2022/08/11 07:04:42;;;;;;;8.15;3.63;;;;;;;24.66;48.77;98763.75;5132826;27;20079;-94
2022/08/11 07:17:00;;;;;;;4.50;3.40;;;;;;;25.26;47.26;98757.72;5092514;27;20723;-95
2022/08/11 07:28:55;;;;;;;5.45;3.70;;;;;;;25.82;46.95;98739.03;5133960;27;20836;-93
2022/08/11 07:31:29;;;;;;;6.57;3.85;;;;;;;25.80;46.04;98735.59;5135572;27;20035;-92
2022/08/11 07:34:04;;;;;;;5.28;3.60;;;;;;;25.69;46.85;98746.59;5135399;27;20059;-95
2022/08/11 07:36:33;;;;;;;5.28;3.83;;;;;;;25.48;46.52;98732.19;5134412;27;20035;-94
2022/08/11 07:39:00;;;;;;;6.90;3.45;;;;;;;25.40;46.87;98725.56;5134918;27;20131;-92
2022/08/11 07:41:31;;;;;;;4.63;3.22;;;;;;;25.69;46.00;98729.41;5133773;27;20069;-93
2022/08/11 07:44:07;;;;;;;5.53;3.40;;;;;;;25.58;45.60;98727.66;5133702;27;20081;-91
2022/08/11 07:52:39;;;;;;;7.75;3.60;;;;;;;26.05;45.54;98738.84;5147814;27;20368;-92
2022/08/11 07:55:10;;;;;;;8.15;3.50;;;;;;;25.64;46.27;98737.13;5113473;28;20065;-94
2022/08/11 08:19:37;;;;;;;6.22;3.50;;;;;;;26.43;41.88;98718.06;5070485;27;20364;-93
2022/08/11 08:22:03;;;;;;;5.35;3.47;;;;;;;26.61;41.70;98715.53;5122818;27;20037;-91
2022/08/11 08:24:31;;;;;;;5.50;3.50;;;;;;;26.72;41.33;98709.91;5081330;27;20493;-91
2022/08/11 08:26:58;;;;;;;6.47;3.55;;;;;;;26.90;41.08;98701.84;5085494;27;20040;-91
2022/08/11 08:32:22;;;;;;;6.07;3.10;;;;;;;26.96;40.78;98712.16;5124289;27;20376;-90
2022/08/11 08:34:50;;;;;;;6.28;3.47;;;;;;;26.99;40.72;98711.00;5122016;28;20398;-93
2022/08/11 08:37:18;;;;;;;5.05;3.20;;;;;;;27.17;40.84;98714.72;5124771;28;20050;-92
2022/08/11 08:39:45;;;;;;;5.75;3.15;;;;;;;27.17;40.17;98698.34;5122269;28;20051;-90
2022/08/11 08:42:16;;;;;;;5.05;3.13;;;;;;;27.34;39.91;98701.31;5121975;28;20047;-91
2022/08/11 08:44:46;;;;;;;4.38;3.22;;;;;;;27.59;39.75;98689.69;5119580;28;20056;-92
2022/08/11 08:47:14;;;;;;;5.68;3.50;;;;;;;27.83;38.67;98712.88;5122670;28;20043;-93
2022/08/11 08:49:48;;;;;;;4.68;3.15;;;;;;;27.70;39.27;98721.41;5125973;27;20485;-93
2022/08/11 08:52:18;;;;;;;4.90;3.08;;;;;;;27.83;38.67;98710.97;5123826;27;20111;-94
2022/08/11 08:54:47;;;;;;;6.07;3.38;;;;;;;27.17;39.67;98689.25;5122608;27;20036;-95
2022/08/11 08:57:16;;;;;;;7.00;3.35;;;;;;;27.37;40.21;98725.56;5125619;27;20043;-94
2022/08/11 08:59:46;;;;;;;5.32;3.13;;;;;;;27.15;39.95;98707.66;5121830;27;20040;-94
2022/08/11 09:02:12;;;;;;;5.45;3.20;;;;;;;27.41;39.75;98707.88;5125941;28;20050;-92
2022/08/11 09:04:43;;;;;;;5.90;3.60;;;;;;;27.36;40.12;98708.31;5126261;27;20031;-94
2022/08/11 09:07:12;;;;;;;7.28;3.17;;;;;;;27.54;39.16;98715.72;5115350;27;20043;-89
2022/08/11 09:09:41;;;;;;;6.70;3.45;;;;;;;27.63;39.50;98684.78;5123465;28;20567;-91
2022/08/11 09:12:10;;;;;;;5.15;3.45;;;;;;;28.05;38.62;98704.25;5118060;28;20046;-92
2022/08/11 09:17:39;;;;;;;6.03;3.15;;;;;;;28.43;36.96;98712.31;5138142;27;20391;-91
2022/08/11 09:20:10;;;;;;;5.65;3.25;;;;;;;28.37;37.65;98694.66;5136338;27;20035;-92
2022/08/11 09:28:35;;;;;;;5.15;3.50;;;;;;;28.19;37.89;98691.94;5135371;27;20371;-91
2022/08/11 09:31:02;;;;;;;5.55;3.25;;;;;;;28.50;36.95;98687.94;5135852;27;20035;-94
2022/08/11 09:33:30;;;;;;;5.03;3.20;;;;;;;28.59;36.63;98700.69;5132216;27;20131;-89
2022/08/11 09:40:27;;;;;;;5.75;3.25;;;;;;;28.64;36.63;98690.13;5140602;27;20485;-93
2022/08/11 09:41:48;;;;;;;6.10;3.22;;;;;;;28.70;35.47;98694.97;5138652;27;20886;-91
2022/08/11 09:47:18;;;;;;;6.75;3.60;;;;;;;28.90;34.10;98687.41;5091240;27;20382;-92
2022/08/11 09:49:45;;;;;;;6.50;3.03;;;;;;;28.57;34.19;98686.31;5091637;28;20520;-91
2022/08/11 09:52:13;;;;;;;4.75;3.33;;;;;;;28.62;34.62;98695.75;5092546;28;21228;-94
2022/08/11 09:54:40;;;;;;;5.43;3.03;;;;;;;28.32;34.05;98693.41;5092031;28;20036;-92
2022/08/11 10:00:09;;;;;;;5.05;3.17;;;;;;;28.54;35.39;98690.25;5112359;27;20388;-92
2022/08/11 10:02:42;;;;;;;4.85;3.08;;;;;;;28.66;35.08;98679.88;5113587;28;20091;-94
2022/08/11 10:08:16;;;;;;;5.78;3.17;;;;;;;28.41;35.10;98667.84;5145546;27;20381;-91
2022/08/11 10:10:44;;;;;;;5.85;3.58;;;;;;;28.84;35.43;98672.53;5121250;28;20496;-91
2022/08/11 10:13:17;;;;;;;4.43;3.17;;;;;;;28.78;33.57;98648.53;5117513;28;20132;-94
2022/08/11 10:15:45;;;;;;;5.53;3.00;;;;;;;28.83;34.40;98651.63;5113748;28;20119;-93
2022/08/11 10:21:23;;;;;;;6.32;3.30;;;;;;;28.56;35.51;98663.59;5137690;27;20384;-92
2022/08/11 10:26:55;;;;;;;5.30;3.20;;;;;;;28.61;35.51;98657.63;5091957;27;20385;-94
2022/08/11 10:35:33;;;;;;;4.70;3.17;;;;;;;28.69;34.65;98652.19;5132566;27;20376;-90
2022/08/11 10:37:59;;;;;;;;;;;;;;;28.75;33.93;98658.91;5118089;27;20052;-90
2022/08/11 10:40:26;;;;;;;5.03;2.95;;;;;;;28.74;35.06;98658.06;5116834;28;19920;-94
2022/08/11 10:43:05;;;;;;;4.35;3.38;;;;;;;28.46;34.62;98646.38;5117024;28;20436;-92
2022/08/11 10:48:37;;;;;;;4.82;3.40;;;;;;;29.09;33.74;98639.84;5092577;28;20362;-92
2022/08/11 10:51:13;;;;;;;5.28;3.08;;;;;;;29.09;31.35;98642.59;5090084;28;20508;-91
2022/08/11 10:59:43;;;;;;;3.85;3.10;;;;;;;29.78;31.80;98634.34;5145164;27;20372;-90
2022/08/11 11:02:13;;;;;;;4.43;3.10;;;;;;;29.29;31.37;98629.50;5111455;28;20093;-90
2022/08/11 11:04:57;;;;;;;7.35;3.20;;;;;;;29.24;32.05;98651.91;5107539;28;20489;-91
2022/08/11 11:07:30;;;;;;;4.85;3.13;;;;;;;29.11;32.83;98635.06;5110417;28;20105;-89
2022/08/11 11:09:57;;;;;;;4.57;3.00;;;;;;;29.23;32.22;98631.03;5110441;28;20122;-92
2022/08/11 11:18:34;;;;;;;7.13;3.35;;;;;;;29.65;30.54;98621.06;5129313;27;20383;-92
2022/08/11 11:21:04;;;;;;;6.15;3.40;;;;;;;29.21;32.13;98627.59;5111503;28;20082;-93
2022/08/11 11:23:37;;;;;;;7.03;3.53;;;;;;;29.06;33.09;98629.16;5115724;28;20112;-92
2022/08/11 11:26:32;;;;;;;4.28;3.20;;;;;;;29.60;32.05;98620.69;5113296;28;20071;-94
2022/08/11 11:29:10;;;;;;;4.88;3.10;;;;;;;29.68;32.20;98618.00;5104015;28;20043;-90
2022/08/11 11:31:49;;;;;;;6.93;3.20;;;;;;;29.80;32.08;98632.28;5113529;28;20496;-93
2022/08/11 11:34:33;;;;;;;5.47;3.08;;;;;;;29.93;31.19;98618.06;5111696;28;20272;-92
2022/08/11 11:37:00;;;;;;;5.35;3.05;;;;;;;29.68;30.65;98613.34;5122838;28;20472;-93
2022/08/11 11:39:30;;;;;;;3.90;3.20;;;;;;;29.46;30.87;98603.03;5113398;28;20122;-90
2022/08/11 11:41:59;;;;;;;6.95;3.40;;;;;;;29.95;30.10;98624.25;5116556;28;20036;-93
2022/08/11 11:44:26;;;;;;;4.68;3.00;;;;;;;29.38;30.40;98616.69;5112344;28;20043;-93
2022/08/11 11:46:52;;;;;;;5.72;3.00;;;;;;;29.79;29.88;98617.69;5113926;28;20035;-95
2022/08/11 11:49:24;;;;;;;4.78;2.92;;;;;;;30.03;29.19;98610.53;5110844;28;20043;-90
2022/08/11 11:51:51;;;;;;;6.22;3.08;;;;;;;30.14;29.32;98601.13;5112681;28;20431;-93
2022/08/11 11:54:20;;;;;;;6.70;3.00;;;;;;;30.42;27.93;98616.25;5114648;28;20035;-92
2022/08/11 11:56:46;;;;;;;4.03;2.90;;;;;;;30.59;28.44;98600.63;5113360;28;20032;-92
2022/08/11 12:02:15;;;;;;;4.10;2.90;;;;;;;30.56;28.88;98602.84;5126194;27;20392;-92
2022/08/11 12:04:43;;;;;;;4.38;3.15;;;;;;;29.92;29.55;98606.25;5129775;27;20051;-90
2022/08/11 12:10:10;;;;;;;6.82;3.00;;;;;;;30.80;27.55;98593.75;5195602;27;20706;-90
2022/08/11 12:15:36;;;;;;;5.05;3.20;;;;;;;30.91;27.77;98596.16;5180614;27;20358;-91
2022/08/11 12:18:03;;;;;;;5.20;3.13;;;;;;;30.18;29.82;98584.16;5142156;27;21399;-90
2022/08/11 12:20:30;;;;;;;5.07;3.28;;;;;;;30.01;30.17;98593.41;5144399;27;20062;-89
2022/08/11 12:29:00;;;;;;;4.85;3.03;;;;;;;29.82;31.15;98575.38;5120550;27;20386;-91
2022/08/11 12:31:28;;;;;;;5.60;3.65;;;;;;;29.51;31.59;98577.88;5128580;27;20047;-90
2022/08/11 12:34:00;;;;;;;4.72;3.30;;;;;;;29.55;31.41;98573.78;5122273;27;20070;-92
2022/08/11 12:36:26;;;;;;;4.72;3.05;;;;;;;29.71;31.34;98589.41;5128476;27;20047;-93
2022/08/11 12:38:54;;;;;;;6.97;3.25;;;;;;;29.98;31.68;98583.63;5121774;27;20044;-94
2022/08/11 12:47:18;;;;;;;6.07;3.20;;;;;;;29.75;31.19;98583.44;5089083;27;20358;-89
2022/08/11 12:52:53;;;;;;;6.15;2.90;;;;;;;30.06;30.45;98578.16;5113899;27;20393;-90
2022/08/11 12:58:17;;;;;;;4.43;3.10;;;;;;;29.73;30.26;98573.66;5124650;27;20124;-91
2022/08/11 13:06:45;;;;;;;6.43;3.25;;;;;;;29.72;30.89;98572.81;5151494;27;20739;-90
2022/08/11 13:09:12;;;;;;;6.10;3.28;;;;;;;28.67;31.93;98562.09;5151656;27;20484;-92
2022/08/11 13:14:39;;;;;;;5.05;3.00;;;;;;;28.88;32.00;98553.44;5071737;27;20383;-95
2022/08/11 13:20:07;;;;;;;4.18;3.10;;;;;;;29.48;30.45;98537.97;5122578;27;20394;-89
2022/08/11 13:22:36;;;;;;;4.40;3.25;;;;;;;29.15;30.91;98546.09;5124790;28;20046;-90
2022/08/11 13:25:04;;;;;;;7.72;3.97;;;;;;;29.41;31.18;98534.19;5123717;27;20038;-90
2022/08/11 13:27:30;;;;;;;4.07;3.30;;;;;;;29.24;31.60;98536.03;5122411;27;20084;-92
2022/08/11 13:32:59;;;;;;;4.75;3.03;;;;;;;29.56;32.08;98524.28;5131693;27;20384;-92
2022/08/11 13:35:26;;;;;;;5.35;3.08;;;;;;;29.49;31.17;98524.13;5112458;28;20100;-92
2022/08/11 13:37:55;;;;;;;6.13;3.40;;;;;;;29.17;32.64;98510.31;5115417;28;20071;-89
2022/08/11 13:40:21;;;;;;;;;;;;;;;29.47;32.00;98528.91;5114328;27;20526;-90
2022/08/11 13:42:49;;;;;;;5.25;3.22;;;;;;;29.45;31.38;98503.56;5113274;28;20313;-90
2022/08/11 13:45:15;;;;;;;3.85;3.28;;;;;;;29.13;31.38;98520.75;5114426;28;20036;-90
2022/08/11 13:47:42;;;;;;;4.43;3.17;;;;;;;29.31;30.93;98511.56;5113959;28;20039;-90
2022/08/11 13:50:12;;;;;;;4.00;3.10;;;;;;;29.49;30.94;98509.53;5109083;28;20032;-94
2022/08/11 13:52:40;;;;;;;5.10;3.20;;;;;;;29.47;30.43;98504.25;5118770;28;20034;-90
2022/08/11 13:55:07;;;;;;;6.20;3.28;;;;;;;29.50;30.19;98494.81;5115385;28;20031;-91
2022/08/11 13:57:34;;;;;;;3.65;2.90;;;;;;;29.53;30.64;98515.53;5115513;27;20043;-91
2022/08/11 14:00:10;;;;;;;4.60;3.17;;;;;;;29.33;30.66;98515.00;5113284;28;20032;-93
2022/08/11 14:02:40;;;;;;;6.13;3.05;;;;;;;29.24;30.87;98512.22;5115378;28;20039;-88
2022/08/11 14:05:12;;;;;;;5.68;3.22;;;;;;;29.35;29.77;98511.06;5108238;28;20511;-91
2022/08/11 14:07:41;;;;;;;4.40;3.20;;;;;;;29.60;29.99;98505.63;5116286;28;20046;-92
2022/08/11 14:10:11;;;;;;;4.70;3.05;;;;;;;29.87;29.38;98507.22;5111406;28;20103;-92
2022/08/11 14:15:44;;;;;;;4.53;2.92;;;;;;;29.95;28.17;98493.53;5113825;27;20380;-90
2022/08/11 14:18:17;;;;;;;5.47;3.05;;;;;;;30.15;28.65;98512.34;5113830;28;20745;-93
2022/08/11 14:23:49;;;;;;;3.92;2.92;;;;;;;29.73;29.48;98502.41;5119004;27;21153;-91
2022/08/11 14:29:20;;;;;;;5.10;3.00;;;;;;;29.32;29.07;98505.03;5096551;27;20378;-92
2022/08/11 14:31:48;;;;;;;4.32;3.03;;;;;;;29.55;28.98;98476.00;5083906;28;20494;-91
2022/08/11 14:34:20;;;;;;;4.60;3.00;;;;;;;29.63;28.66;98467.78;5079267;28;20071;-92
2022/08/11 14:36:51;;;;;;;4.38;2.83;;;;;;;29.72;28.73;98468.66;5078558;28;20040;-90
2022/08/11 14:39:20;;;;;;;5.00;3.72;;;;;;;29.58;28.52;98472.03;5080855;28;20494;-91
2022/08/11 14:47:42;;;;;;;8.00;3.50;;;;;;;29.61;28.40;98472.56;5140117;27;20448;-92
2022/08/11 14:50:13;;;;;;;4.85;2.92;;;;;;;29.48;28.54;98474.97;5120684;28;20043;-91
2022/08/11 14:52:48;;;;;;;5.68;3.10;;;;;;;29.59;28.97;98471.03;5121223;28;20039;-91
2022/08/11 14:58:19;;;;;;;5.43;3.00;;;;;;;29.11;29.03;98483.63;5127951;27;20739;-91
2022/08/11 15:00:45;;;;;;;5.15;3.08;;;;;;;28.91;29.44;98472.03;5113177;28;20542;-91
2022/08/11 15:03:13;;;;;;;3.95;2.88;;;;;;;29.18;28.74;98480.03;5110895;28;20051;-94
2022/08/11 15:05:46;;;;;;;4.07;3.10;;;;;;;28.98;28.76;98464.91;5114141;28;20048;-90
2022/08/11 15:08:14;;;;;;;5.05;3.10;;;;;;;29.03;29.17;98465.25;5112082;28;20043;-89
2022/08/11 15:10:40;;;;;;;5.93;3.20;;;;;;;29.32;29.14;98453.88;5113942;27;20396;-90
2022/08/11 15:13:07;;;;;;;5.40;3.03;;;;;;;29.23;28.74;98457.63;5112277;27;20046;-90
2022/08/11 15:18:37;;;;;;;5.30;3.05;;;;;;;29.34;28.99;98460.03;5121345;27;20367;-91
2022/08/11 15:39:34;;;;;;;5.35;3.00;;;;;;;29.87;28.09;98449.66;5114017;27;20365;-90
2022/08/11 15:48:13;;;;;;;4.18;3.08;;;;;;;29.79;28.01;98449.66;5132335;27;20366;-91
2022/08/11 15:50:45;;;;;;;4.63;2.95;;;;;;;29.66;27.71;98447.41;5129140;27;20088;-91
2022/08/11 15:53:17;;;;;;;5.03;3.30;;;;;;;29.48;27.68;98450.31;5140072;27;20051;-90
2022/08/11 15:55:44;;;;;;;8.05;3.50;;;;;;;29.11;28.57;98446.13;5138504;27;20039;-89
2022/08/11 16:04:18;;;;;;;5.43;3.38;;;;;;;29.75;28.29;98435.44;5136628;27;20366;-91
2022/08/11 16:06:50;;;;;;;4.95;3.10;;;;;;;29.96;27.95;98434.91;5135856;27;20107;-88
2022/08/11 16:09:23;;;;;;;4.70;3.15;;;;;;;29.83;27.59;98423.63;5128481;27;20074;-90
2022/08/11 16:11:51;;;;;;;4.15;2.97;;;;;;;30.15;27.57;98432.84;5132284;27;20874;-92
2022/08/11 16:17:23;;;;;;;5.45;3.20;;;;;;;29.39;27.52;98424.78;5109005;27;20372;-91
2022/08/11 16:19:52;;;;;;;4.43;2.97;;;;;;;29.61;27.95;98428.72;5107012;28;20044;-90
2022/08/11 16:22:33;;;;;;;4.15;3.15;;;;;;;29.73;27.36;98421.03;5110405;28;20036;-91
2022/08/11 16:25:00;;;;;;;4.53;3.00;;;;;;;29.29;27.03;98399.44;5109579;28;21323;-93
2022/08/11 16:27:26;;;;;;;6.95;3.20;;;;;;;29.15;27.78;98405.56;5110542;28;20062;-91
2022/08/11 16:29:55;;;;;;;5.30;3.13;;;;;;;28.55;28.52;98407.44;5108856;28;20032;-92
2022/08/11 16:32:24;;;;;;;5.47;2.92;;;;;;;28.60;28.87;98406.94;5111144;28;20043;-93
2022/08/11 16:40:57;;;;;;;4.57;3.00;;;;;;;28.43;28.94;98405.97;5129869;27;20367;-89
2022/08/11 16:49:50;;;;;;;5.65;2.97;;;;;;;28.06;27.44;98412.63;5149149;27;20926;-91
2022/08/11 16:52:17;;;;;;;4.68;3.30;;;;;;;28.00;27.74;98414.13;5150799;27;20488;-91
2022/08/11 16:54:46;;;;;;;4.25;2.72;;;;;;;27.88;27.60;98403.63;5151906;27;20035;-93
2022/08/11 17:00:19;;;;;;;6.78;3.30;;;;;;;27.93;28.38;98418.50;5128437;27;1465927;-91
2022/08/11 17:15:02;;;;;;;5.93;3.20;;;;;;;27.68;29.58;98428.38;5130124;27;20375;-91
2022/08/11 17:17:34;;;;;;;7.38;3.25;;;;;;;27.64;29.77;98433.31;5129733;28;20116;-91
2022/08/11 17:20:06;;;;;;;4.70;2.72;;;;;;;27.52;30.66;98437.31;5129467;28;20042;-93
2022/08/11 17:25:36;;;;;;;3.90;3.00;;;;;;;27.43;32.40;98449.16;5154581;27;20358;-94
2022/08/11 17:28:03;;;;;;;4.90;3.47;;;;;;;27.38;32.90;98421.47;5148036;27;20044;-92
2022/08/11 17:36:36;;;;;;;5.78;3.50;;;;;;;26.61;34.87;98454.56;5182635;27;20366;-90
2022/08/11 17:39:49;;;;;;;4.28;3.00;;;;;;;26.50;35.14;98459.31;5147465;27;20046;-93
2022/08/11 17:51:09;;;;;;;4.85;3.22;;;;;;;26.20;35.83;98464.03;5180261;27;20360;-93
2022/08/11 18:05:44;;;;;;;5.68;3.05;;;;;;;25.76;37.07;98461.81;5168465;27;20357;-90
